Time;durP1;ratioP1;P1;durP2;ratioP2;P2;SDS_P1;SDS_P2;PMS_P1;PMS_P2;Temp;Humidity;BMP_temperature;BMP_pressure;BME280_temperature;BME280_humidity;BME280_pressure;Samples;Min_cycle;Max_cycle;Signal;HPM_P1;HPM_P2
2022/04/07 00:00:36;;;;;;;58.90;9.67;;;14.60;99.90;;;;;;4991042;28;20200;-68
2022/04/07 00:03:03;;;;;;;47.13;8.77;;;14.60;99.90;;;;;;4992914;28;20213;-68
2022/04/07 00:05:29;;;;;;;60.70;9.23;;;14.60;99.90;;;;;;4987860;28;20276;-68
2022/04/07 00:07:55;;;;;;;60.67;9.63;;;14.60;99.90;;;;;;4971012;28;20198;-68
2022/04/07 00:10:22;;;;;;;71.90;9.00;;;14.60;99.90;;;;;;4988269;28;20219;-68
2022/04/07 00:12:48;;;;;;;75.93;10.77;;;14.70;99.90;;;;;;4986599;28;20225;-68
2022/04/07 00:15:14;;;;;;;69.53;10.10;;;14.70;99.90;;;;;;4991558;28;20305;-68
2022/04/07 00:17:40;;;;;;;49.23;9.13;;;14.70;99.90;;;;;;5002274;28;20192;-68
2022/04/07 00:20:07;;;;;;;49.73;9.10;;;14.70;99.90;;;;;;4997192;28;20193;-68
2022/04/07 00:22:34;;;;;;;47.40;8.60;;;14.70;99.90;;;;;;4987465;28;20201;-68
2022/04/07 00:25:02;;;;;;;64.90;9.97;;;14.80;99.90;;;;;;4986843;28;20213;-68
2022/04/07 00:27:29;;;;;;;54.83;8.63;;;14.80;99.90;;;;;;4987613;28;20613;-68
2022/04/07 00:29:55;;;;;;;46.30;8.10;;;14.70;99.90;;;;;;4984119;28;20204;-68
2022/04/07 00:32:21;;;;;;;57.70;8.37;;;14.80;99.90;;;;;;4987957;28;20198;-68
2022/04/07 00:34:49;;;;;;;56.63;9.53;;;14.80;99.90;;;;;;4975722;28;20209;-68
2022/04/07 00:37:16;;;;;;;52.87;8.13;;;14.80;99.90;;;;;;4982228;28;20776;-68
2022/04/07 00:39:42;;;;;;;50.53;8.57;;;14.80;99.90;;;;;;4977391;28;20194;-68
2022/04/07 00:42:09;;;;;;;55.13;10.07;;;14.80;99.90;;;;;;4986188;28;20613;-68
2022/04/07 00:44:35;;;;;;;55.13;9.03;;;14.70;99.90;;;;;;4989263;28;20218;-68
2022/04/07 00:47:01;;;;;;;59.03;8.47;;;14.60;99.90;;;;;;4984911;28;20769;-68
2022/04/07 00:49:27;;;;;;;52.40;9.03;;;14.60;99.90;;;;;;4985997;28;20197;-68
2022/04/07 00:51:54;;;;;;;41.37;8.40;;;14.50;99.90;;;;;;4990757;28;20189;-68
2022/04/07 00:54:20;;;;;;;48.53;8.60;;;14.50;99.90;;;;;;4987085;28;20200;-68
2022/04/07 00:56:47;;;;;;;55.20;8.50;;;14.50;99.90;;;;;;4979073;28;20269;-69
2022/04/07 00:59:17;;;;;;;58.83;9.33;;;14.40;99.90;;;;;;4986939;28;20223;-67
2022/04/07 01:01:45;;;;;;;53.77;9.63;;;14.40;99.90;;;;;;4970132;28;20557;-68
2022/04/07 01:04:11;;;;;;;49.73;8.87;;;14.40;99.90;;;;;;4985614;28;20275;-68
2022/04/07 01:06:39;;;;;;;50.57;9.10;;;14.40;99.90;;;;;;4984469;28;20201;-68
2022/04/07 01:09:06;;;;;;;43.23;8.43;;;14.40;99.90;;;;;;4985883;28;20621;-68
2022/04/07 01:11:35;;;;;;;41.23;7.83;;;14.50;99.90;;;;;;4989926;28;20193;-68
2022/04/07 01:14:02;;;;;;;50.47;8.63;;;14.50;99.90;;;;;;4992029;28;20199;-68
2022/04/07 01:16:30;;;;;;;43.73;8.60;;;14.50;99.90;;;;;;4982522;28;20770;-68
2022/04/07 01:18:59;;;;;;;50.77;8.90;;;14.50;99.90;;;;;;4988886;28;20243;-68
2022/04/07 01:21:32;;;;;;;49.23;8.83;;;14.50;99.90;;;;;;4991935;28;20201;-68
2022/04/07 01:24:06;;;;;;;66.00;9.60;;;14.50;99.90;;;;;;4991511;28;20221;-68
2022/04/07 01:26:51;;;;;;;49.00;10.00;;;14.50;99.90;;;;;;4990182;28;20193;-68
2022/04/07 01:29:25;;;;;;;43.13;8.10;;;14.50;99.90;;;;;;4991534;28;20224;-68
2022/04/07 01:31:51;;;;;;;55.77;8.77;;;14.50;99.90;;;;;;4997343;28;20200;-68
2022/04/07 01:34:19;;;;;;;49.43;8.43;;;14.60;99.90;;;;;;4990585;28;20209;-68
2022/04/07 01:36:51;;;;;;;53.07;9.23;;;14.50;99.90;;;;;;4990788;28;20280;-68
2022/04/07 01:39:25;;;;;;;52.33;9.07;;;14.40;99.90;;;;;;4985125;28;20209;-68
2022/04/07 01:41:52;;;;;;;39.43;8.10;;;14.40;99.90;;;;;;4995827;28;20263;-68
2022/04/07 01:44:19;;;;;;;58.30;8.43;;;14.40;99.90;;;;;;4989313;28;20224;-68
2022/04/07 01:46:48;;;;;;;43.10;9.37;;;14.30;99.90;;;;;;4987855;28;20232;-68
2022/04/07 01:49:16;;;;;;;47.53;8.53;;;14.30;99.90;;;;;;4990692;28;20197;-68
2022/04/07 01:51:45;;;;;;;54.93;8.67;;;14.30;99.90;;;;;;4985960;28;20194;-68
2022/04/07 01:54:12;;;;;;;57.13;8.73;;;14.30;99.90;;;;;;4990508;28;20190;-68
2022/04/07 01:56:41;;;;;;;46.17;9.03;;;14.30;99.90;;;;;;4990865;28;20193;-68
2022/04/07 01:59:09;;;;;;;53.47;9.37;;;14.30;99.90;;;;;;4972518;28;20213;-68
2022/04/07 02:01:36;;;;;;;49.57;8.07;;;14.20;99.90;;;;;;4987689;28;20203;-68
2022/04/07 02:04:03;;;;;;;54.70;9.43;;;14.20;99.90;;;;;;4973449;28;20231;-68
2022/04/07 02:06:30;;;;;;;51.37;8.77;;;14.20;99.90;;;;;;4988498;28;20284;-68
2022/04/07 02:08:57;;;;;;;53.07;7.80;;;14.10;99.90;;;;;;4990684;28;20934;-66
2022/04/07 02:11:23;;;;;;;43.37;7.50;;;14.10;99.90;;;;;;4990328;28;20292;-66
2022/04/07 02:13:50;;;;;;;52.80;9.00;;;14.10;99.90;;;;;;4990647;28;20201;-66
2022/04/07 02:16:19;;;;;;;55.37;9.23;;;14.10;99.90;;;;;;4991051;28;20213;-68
2022/04/07 02:18:45;;;;;;;51.63;8.40;;;14.10;99.90;;;;;;4989844;28;21028;-65
2022/04/07 02:21:11;;;;;;;41.17;6.97;;;14.10;99.90;;;;;;4972641;28;20198;-68
2022/04/07 02:23:43;;;;;;;53.27;7.40;;;14.10;99.90;;;;;;4990031;28;20205;-68
2022/04/07 02:26:16;;;;;;;42.80;7.77;;;14.20;99.90;;;;;;4987730;28;20198;-68
2022/04/07 02:28:43;;;;;;;46.03;7.27;;;14.20;99.90;;;;;;4990062;28;20252;-68
2022/04/07 02:31:13;;;;;;;42.43;8.17;;;14.30;99.90;;;;;;4989644;28;20193;-68
2022/04/07 02:33:40;;;;;;;44.77;8.13;;;14.30;99.90;;;;;;4989899;28;20204;-68
2022/04/07 02:36:08;;;;;;;41.33;7.83;;;14.30;99.90;;;;;;4990396;28;20260;-68
2022/04/07 02:38:36;;;;;;;45.43;7.53;;;14.30;99.90;;;;;;4985599;28;20197;-66
2022/04/07 02:41:04;;;;;;;51.60;7.67;;;14.30;99.90;;;;;;4990756;28;20231;-68
2022/04/07 02:43:30;;;;;;;38.37;8.13;;;14.40;99.90;;;;;;4990360;28;20682;-68
2022/04/07 02:45:56;;;;;;;54.97;8.53;;;14.40;99.90;;;;;;4990335;28;20225;-69
2022/04/07 02:48:22;;;;;;;46.33;7.97;;;14.40;99.90;;;;;;4989056;28;20205;-68
2022/04/07 02:50:49;;;;;;;43.97;8.27;;;14.40;99.90;;;;;;4990345;28;20266;-68
2022/04/07 02:53:15;;;;;;;48.33;7.53;;;14.50;99.90;;;;;;4989028;28;20203;-68
2022/04/07 02:55:41;;;;;;;54.37;8.60;;;14.50;99.90;;;;;;4990792;28;20252;-68
2022/04/07 02:58:08;;;;;;;48.80;7.80;;;14.50;99.90;;;;;;4988875;28;20224;-68
2022/04/07 03:00:34;;;;;;;42.93;7.27;;;14.40;99.90;;;;;;4988681;28;20189;-68
2022/04/07 03:03:01;;;;;;;45.40;8.50;;;14.40;99.90;;;;;;4990456;28;20206;-68
2022/04/07 03:05:27;;;;;;;44.13;7.97;;;14.40;99.90;;;;;;4994419;28;20232;-68
2022/04/07 03:07:53;;;;;;;42.10;7.03;;;14.30;99.90;;;;;;4988137;28;20741;-68
2022/04/07 03:10:19;;;;;;;43.37;8.10;;;14.40;99.90;;;;;;4989348;28;20279;-68
2022/04/07 03:12:46;;;;;;;43.47;7.03;;;14.40;99.90;;;;;;5000200;28;20590;-68
2022/04/07 03:15:12;;;;;;;40.47;8.00;;;14.40;99.90;;;;;;4987791;28;20554;-68
2022/04/07 03:17:38;;;;;;;52.67;8.57;;;14.40;99.90;;;;;;4989071;28;20240;-68
2022/04/07 03:20:06;;;;;;;56.77;7.80;;;14.40;99.90;;;;;;4983150;28;20275;-68
2022/04/07 03:22:32;;;;;;;40.07;7.63;;;14.50;99.90;;;;;;4988431;28;20598;-66
2022/04/07 03:24:58;;;;;;;43.33;7.20;;;14.50;99.90;;;;;;4989565;28;20214;-68
2022/04/07 03:27:24;;;;;;;48.53;8.10;;;14.50;99.90;;;;;;4987743;28;20197;-68
2022/04/07 03:29:51;;;;;;;53.37;9.20;;;14.50;99.90;;;;;;4988515;28;20225;-68
2022/04/07 03:32:21;;;;;;;55.73;9.57;;;14.50;99.90;;;;;;4990706;28;20197;-68
2022/04/07 03:34:47;;;;;;;49.10;8.33;;;14.50;99.90;;;;;;4991227;28;20206;-68
2022/04/07 03:37:14;;;;;;;47.93;7.77;;;14.50;99.90;;;;;;4986330;28;20283;-68
2022/04/07 03:39:41;;;;;;;44.17;7.83;;;14.50;99.90;;;;;;4989500;28;20792;-68
2022/04/07 03:42:07;;;;;;;50.40;8.63;;;14.50;99.90;;;;;;4991175;28;20197;-68
2022/04/07 03:44:34;;;;;;;48.70;7.73;;;14.60;99.90;;;;;;4978201;28;20218;-68
2022/04/07 03:47:01;;;;;;;45.17;7.93;;;14.50;99.90;;;;;;4996177;28;20194;-68
2022/04/07 03:49:27;;;;;;;56.60;8.13;;;14.50;99.90;;;;;;4970292;28;20198;-68
2022/04/07 03:51:53;;;;;;;48.07;7.83;;;14.50;99.90;;;;;;4963772;28;20201;-68
2022/04/07 03:54:20;;;;;;;58.03;8.60;;;14.60;99.90;;;;;;4982539;28;20542;-68
2022/04/07 03:56:46;;;;;;;50.03;6.97;;;14.50;99.90;;;;;;4989843;28;20312;-68
2022/04/07 03:59:13;;;;;;;48.40;7.67;;;14.50;99.90;;;;;;4991035;28;20657;-68
2022/04/07 04:01:40;;;;;;;56.10;8.20;;;14.50;99.90;;;;;;4983213;28;20194;-68
2022/04/07 04:04:06;;;;;;;50.80;8.00;;;14.50;99.90;;;;;;5002732;28;20245;-68
2022/04/07 04:06:34;;;;;;;50.93;8.30;;;14.50;99.90;;;;;;4995929;28;20192;-68
2022/04/07 04:09:00;;;;;;;43.33;7.73;;;14.50;99.90;;;;;;4978070;28;20193;-69
2022/04/07 04:11:27;;;;;;;51.57;9.07;;;14.50;99.90;;;;;;4980659;28;20221;-68
2022/04/07 04:13:53;;;;;;;49.90;9.10;;;14.60;99.90;;;;;;4998785;28;20197;-68
2022/04/07 04:16:20;;;;;;;46.30;8.07;;;14.60;99.90;;;;;;4996985;28;20217;-68
2022/04/07 04:18:46;;;;;;;43.07;8.37;;;14.60;99.90;;;;;;4979519;28;20213;-68
2022/04/07 04:21:12;;;;;;;41.50;7.77;;;14.60;99.90;;;;;;4981304;28;20202;-68
2022/04/07 04:23:40;;;;;;;59.27;7.83;;;14.60;99.90;;;;;;4973842;28;20190;-68
2022/04/07 04:26:09;;;;;;;45.63;8.63;;;14.60;99.90;;;;;;4985383;28;20193;-68
2022/04/07 04:28:35;;;;;;;50.67;8.47;;;14.60;99.90;;;;;;4979223;28;20237;-68
2022/04/07 04:31:01;;;;;;;66.23;10.87;;;14.70;99.90;;;;;;4977722;28;20591;-68
2022/04/07 04:33:28;;;;;;;48.33;8.37;;;14.70;99.90;;;;;;4969963;28;20186;-68
2022/04/07 04:35:54;;;;;;;46.00;8.67;;;14.80;99.90;;;;;;4953650;28;20217;-68
2022/04/07 04:38:20;;;;;;;41.17;7.80;;;14.80;99.90;;;;;;4979149;28;20272;-68
2022/04/07 04:40:46;;;;;;;53.13;9.20;;;14.90;99.90;;;;;;4976235;28;20216;-68
2022/04/07 04:43:13;;;;;;;50.97;7.23;;;14.90;99.90;;;;;;4990124;28;20351;-68
2022/04/07 04:45:39;;;;;;;51.20;8.37;;;14.90;99.90;;;;;;4988119;28;20686;-68
2022/04/07 04:48:05;;;;;;;37.60;7.77;;;15.00;99.90;;;;;;4988576;28;20190;-68
2022/04/07 04:50:32;;;;;;;41.13;7.90;;;15.00;99.90;;;;;;4975729;28;20638;-68
2022/04/07 04:52:58;;;;;;;38.20;8.20;;;15.10;99.90;;;;;;4995379;28;20181;-68
2022/04/07 04:55:24;;;;;;;39.40;6.73;;;15.10;99.90;;;;;;4990729;28;20198;-68
2022/04/07 04:57:50;;;;;;;42.87;8.10;;;15.20;99.90;;;;;;4971662;28;20194;-68
2022/04/07 05:00:17;;;;;;;44.27;6.83;;;15.30;99.90;;;;;;4977807;28;20252;-68
2022/04/07 05:02:43;;;;;;;48.43;6.67;;;15.30;99.90;;;;;;4990219;28;20236;-68
2022/04/07 05:05:09;;;;;;;39.40;7.40;;;15.40;99.90;;;;;;4989011;28;20789;-68
2022/04/07 05:07:36;;;;;;;40.07;7.53;;;15.50;99.90;;;;;;4988503;28;20241;-68
2022/04/07 05:10:04;;;;;;;37.20;7.20;;;15.60;99.90;;;;;;4987187;28;20530;-68
2022/04/07 05:12:31;;;;;;;41.30;6.80;;;15.70;99.90;;;;;;4981164;28;20256;-68
2022/04/07 05:14:57;;;;;;;35.80;7.00;;;15.80;99.90;;;;;;4981821;28;20690;-68
2022/04/07 05:17:23;;;;;;;37.60;8.40;;;15.80;99.90;;;;;;4981064;28;20193;-68
2022/04/07 05:19:50;;;;;;;34.43;6.80;;;15.90;99.90;;;;;;4982162;28;20202;-68
2022/04/07 05:22:18;;;;;;;46.70;7.40;;;15.90;99.90;;;;;;4985649;28;20201;-69
2022/04/07 05:24:44;;;;;;;37.53;6.30;;;16.00;99.90;;;;;;4972260;28;20666;-68
2022/04/07 05:27:11;;;;;;;44.73;8.03;;;16.00;99.90;;;;;;4985553;28;20197;-69
2022/04/07 05:29:37;;;;;;;36.90;7.70;;;16.10;99.90;;;;;;4969169;28;20208;-69
2022/04/07 05:32:04;;;;;;;41.27;7.57;;;16.20;99.90;;;;;;4988407;28;20196;-68
2022/04/07 05:34:30;;;;;;;32.87;7.33;;;16.30;99.90;;;;;;4988227;28;20328;-69
2022/04/07 05:36:56;;;;;;;41.77;7.03;;;16.30;99.90;;;;;;4988620;28;20202;-68
2022/04/07 05:39:23;;;;;;;39.33;7.10;;;16.40;99.90;;;;;;4987945;28;20204;-66
2022/04/07 05:41:50;;;;;;;42.63;7.93;;;16.40;99.90;;;;;;4987250;28;20197;-67
2022/04/07 05:44:16;;;;;;;37.83;7.10;;;16.50;99.90;;;;;;4980774;28;20233;-68
2022/04/07 05:46:42;;;;;;;50.43;8.20;;;16.60;99.90;;;;;;4994432;28;20205;-66
2022/04/07 05:49:10;;;;;;;47.10;7.40;;;16.70;99.90;;;;;;4975402;28;20182;-66
2022/04/07 05:51:38;;;;;;;39.37;6.80;;;16.80;99.90;;;;;;4984904;28;20190;-66
2022/04/07 05:54:04;;;;;;;36.10;6.67;;;16.80;99.90;;;;;;4988445;28;20682;-66
2022/04/07 05:56:30;;;;;;;44.77;8.20;;;16.80;99.90;;;;;;4988544;28;20276;-66
2022/04/07 05:58:57;;;;;;;37.07;8.37;;;16.90;99.90;;;;;;4982609;28;20198;-66
2022/04/07 06:01:23;;;;;;;41.67;7.40;;;16.90;99.90;;;;;;4983767;28;20720;-66
2022/04/07 06:03:49;;;;;;;34.20;6.83;;;17.00;99.90;;;;;;4992652;28;20227;-66
2022/04/07 06:06:16;;;;;;;47.97;7.83;;;17.10;99.90;;;;;;4986592;28;20194;-66
2022/04/07 06:08:42;;;;;;;36.23;6.77;;;17.20;99.90;;;;;;4988964;28;20721;-66
2022/04/07 06:11:08;;;;;;;37.30;7.67;;;17.20;99.90;;;;;;4975465;28;20213;-66
2022/04/07 06:13:36;;;;;;;47.07;7.30;;;17.30;99.90;;;;;;4994830;28;20640;-66
2022/04/07 06:16:02;;;;;;;42.63;7.37;;;17.40;99.90;;;;;;4993250;28;20209;-67
2022/04/07 06:18:29;;;;;;;43.57;7.80;;;17.50;99.90;;;;;;4988030;28;20214;-67
2022/04/07 06:20:55;;;;;;;33.97;6.63;;;17.50;99.90;;;;;;4987653;28;20256;-66
2022/04/07 06:23:21;;;;;;;41.83;8.10;;;17.50;99.90;;;;;;5007994;28;20189;-66
2022/04/07 06:25:48;;;;;;;43.70;7.30;;;17.60;99.90;;;;;;4978336;28;20221;-68
2022/04/07 06:28:14;;;;;;;39.03;8.30;;;17.70;99.90;;;;;;4978040;28;20213;-68
2022/04/07 06:30:42;;;;;;;43.27;7.43;;;17.80;99.90;;;;;;4990659;28;20185;-66
2022/04/07 06:33:08;;;;;;;43.97;8.13;;;17.80;99.90;;;;;;4988711;28;20276;-66
2022/04/07 06:35:35;;;;;;;45.87;7.73;;;17.90;99.90;;;;;;4991380;28;20196;-66
2022/04/07 06:38:01;;;;;;;43.10;6.93;;;17.90;99.90;;;;;;4987700;28;20664;-66
2022/04/07 06:40:30;;;;;;;40.90;7.83;;;18.00;99.90;;;;;;4986359;28;20194;-66
2022/04/07 06:42:59;;;;;;;35.47;7.37;;;18.00;99.90;;;;;;4976569;28;20525;-66
2022/04/07 06:45:27;;;;;;;38.63;6.70;;;18.10;99.90;;;;;;4980364;28;20710;-66
2022/04/07 06:47:55;;;;;;;37.10;7.00;;;18.20;99.90;;;;;;4976068;28;20197;-66
2022/04/07 06:50:25;;;;;;;40.37;7.33;;;18.20;99.90;;;;;;4981039;28;20218;-66
2022/04/07 06:52:53;;;;;;;38.97;7.50;;;18.30;99.90;;;;;;4987052;28;20201;-66
2022/04/07 06:55:20;;;;;;;35.10;6.73;;;18.30;99.90;;;;;;4992155;28;20931;-66
2022/04/07 06:58:01;;;;;;;39.27;6.87;;;18.40;99.90;;;;;;4973105;28;20197;-66
2022/04/07 07:00:34;;;;;;;58.47;8.40;;;18.50;99.90;;;;;;4988312;28;21081;-66
2022/04/07 07:03:03;;;;;;;58.27;8.10;;;18.50;99.90;;;;;;4990825;28;20193;-68
2022/04/07 07:05:37;;;;;;;37.20;7.13;;;18.60;99.90;;;;;;4986506;28;20316;-68
2022/04/07 07:08:20;;;;;;;42.07;7.13;;;18.70;99.90;;;;;;4989995;28;20193;-68
2022/04/07 07:10:51;;;;;;;49.03;8.33;;;18.80;99.90;;;;;;5000825;28;20579;-68
2022/04/07 07:13:20;;;;;;;52.23;7.83;;;18.90;99.90;;;;;;4985534;28;20193;-68
2022/04/07 07:15:50;;;;;;;64.37;8.77;;;18.90;99.90;;;;;;4998920;28;20297;-68
2022/04/07 07:18:17;;;;;;;51.00;7.60;;;19.00;99.90;;;;;;4962135;28;20909;-68
2022/04/07 07:20:43;;;;;;;37.40;6.57;;;19.10;99.90;;;;;;4976294;28;20198;-68
2022/04/07 07:23:10;;;;;;;44.87;6.80;;;19.10;99.90;;;;;;4991055;28;20205;-68
2022/04/07 07:25:36;;;;;;;41.83;7.90;;;19.20;99.90;;;;;;4991245;28;20217;-67
2022/04/07 07:28:04;;;;;;;46.13;8.00;;;19.30;99.90;;;;;;4990324;28;20201;-68
2022/04/07 07:30:31;;;;;;;41.93;7.63;;;19.50;99.90;;;;;;4995451;28;20276;-68
2022/04/07 07:32:58;;;;;;;46.43;8.27;;;19.60;99.90;;;;;;4984737;28;20198;-68
2022/04/07 07:35:25;;;;;;;40.97;8.17;;;19.70;99.90;;;;;;4984319;28;20198;-68
2022/04/07 07:37:55;;;;;;;50.70;8.10;;;19.80;99.90;;;;;;4989159;28;20197;-68
2022/04/07 07:40:29;;;;;;;47.60;8.93;;;20.00;99.90;;;;;;4991073;28;20206;-68
2022/04/07 07:42:56;;;;;;;48.80;8.57;;;20.10;99.90;;;;;;4989753;28;20654;-68
2022/04/07 07:45:24;;;;;;;55.57;8.27;;;20.20;99.90;;;;;;4988708;28;20275;-68
2022/04/07 07:47:55;;;;;;;40.37;7.10;;;20.30;99.90;;;;;;4980853;28;20181;-68
2022/04/07 07:50:25;;;;;;;55.87;8.63;;;20.40;99.90;;;;;;4985731;28;20260;-68
2022/04/07 07:52:51;;;;;;;54.23;10.23;;;20.70;99.90;;;;;;4982587;28;20819;-68
2022/04/07 07:55:18;;;;;;;55.33;9.80;;;20.90;99.90;;;;;;4977952;28;20658;-68
2022/04/07 07:57:45;;;;;;;49.90;9.57;;;21.00;99.90;;;;;;4988949;28;20212;-68
2022/04/07 08:00:16;;;;;;;65.03;11.30;;;21.20;99.90;;;;;;4988220;28;20201;-68
2022/04/07 08:02:43;;;;;;;75.10;10.53;;;21.20;99.90;;;;;;4987614;28;20205;-68
2022/04/07 08:05:11;;;;;;;59.83;9.70;;;21.20;99.90;;;;;;4988629;28;20227;-68
2022/04/07 08:07:42;;;;;;;49.07;9.43;;;21.20;99.90;;;;;;4988540;28;20221;-68
2022/04/07 08:10:21;;;;;;;58.50;9.43;;;21.30;99.90;;;;;;4990079;28;20183;-68
2022/04/07 08:12:47;;;;;;;46.27;9.03;;;21.30;99.90;;;;;;4976518;28;20550;-68
2022/04/07 08:15:14;;;;;;;47.97;9.40;;;21.30;99.90;;;;;;4980587;28;20190;-68
2022/04/07 08:17:40;;;;;;;42.23;9.13;;;21.40;99.90;;;;;;4989974;28;20619;-68
2022/04/07 08:20:08;;;;;;;68.70;10.13;;;21.40;99.90;;;;;;4989069;28;20821;-68
2022/04/07 08:22:35;;;;;;;61.00;9.97;;;21.50;99.90;;;;;;4985743;28;20204;-68
2022/04/07 08:25:02;;;;;;;45.47;8.63;;;21.70;99.90;;;;;;4971772;28;20700;-68
2022/04/07 08:27:29;;;;;;;48.83;8.67;;;21.70;99.90;;;;;;4986726;28;20202;-68
2022/04/07 08:29:57;;;;;;;54.40;9.40;;;21.80;99.90;;;;;;4984342;28;20641;-68
2022/04/07 08:32:24;;;;;;;69.53;9.60;;;21.80;99.90;;;;;;4990628;28;20239;-68
2022/04/07 08:34:50;;;;;;;54.53;9.17;;;22.00;99.90;;;;;;4988588;28;20185;-68
2022/04/07 08:37:16;;;;;;;53.83;9.27;;;22.00;99.90;;;;;;4971555;28;20661;-68
2022/04/07 08:39:43;;;;;;;60.20;9.23;;;22.10;99.90;;;;;;4977527;28;20570;-68
2022/04/07 08:42:09;;;;;;;47.40;9.27;;;22.20;99.90;;;;;;4990231;28;20225;-68
2022/04/07 08:44:36;;;;;;;59.17;10.20;;;22.30;99.90;;;;;;4988005;28;20884;-68
2022/04/07 08:47:03;;;;;;;62.20;9.33;;;22.40;99.90;;;;;;4977884;28;20190;-68
2022/04/07 08:49:35;;;;;;;54.70;9.07;;;22.40;99.90;;;;;;4987668;28;20194;-68
2022/04/07 08:52:03;;;;;;;50.03;9.17;;;22.50;99.90;;;;;;4976021;28;21019;-68
2022/04/07 08:54:30;;;;;;;43.70;9.27;;;22.60;99.90;;;;;;4987705;28;20197;-68
2022/04/07 08:56:57;;;;;;;57.67;9.53;;;22.70;99.50;;;;;;4989058;28;20207;-68
2022/04/07 08:59:23;;;;;;;68.97;10.77;;;22.80;99.90;;;;;;4987087;28;20197;-68
2022/04/07 09:01:49;;;;;;;51.87;9.93;;;22.90;99.90;;;;;;4988144;28;20197;-68
2022/04/07 09:04:20;;;;;;;50.13;9.83;;;23.10;99.90;;;;;;4970103;28;20279;-68
2022/04/07 09:06:48;;;;;;;50.53;8.95;;;23.20;99.90;;;;;;4982452;28;20213;-68
2022/04/07 09:09:19;;;;;;;53.37;9.47;;;23.30;99.90;;;;;;4985766;28;20205;-68
2022/04/07 09:11:46;;;;;;;50.92;9.77;;;23.40;99.90;;;;;;4976599;28;20642;-68
2022/04/07 09:14:14;;;;;;;48.08;9.25;;;23.50;99.90;;;;;;4983080;28;20585;-67
2022/04/07 09:16:41;;;;;;;55.05;8.93;;;23.70;99.90;;;;;;4980299;28;20233;-68
2022/04/07 09:19:09;;;;;;;65.45;10.38;;;23.80;99.90;;;;;;4985660;28;20197;-68
2022/04/07 09:21:37;;;;;;;67.53;9.98;;;23.90;99.80;;;;;;4998984;28;20186;-70
2022/04/07 09:24:07;;;;;;;53.03;10.13;;;23.90;99.40;;;;;;4980384;28;20209;-68
2022/04/07 09:26:43;;;;;;;68.10;10.25;;;24.10;99.90;;;;;;4982908;28;20205;-68
2022/04/07 09:29:16;;;;;;;60.35;9.75;;;24.20;99.90;;;;;;4982012;28;20185;-68
2022/04/07 09:31:55;;;;;;;49.70;9.00;;;24.30;99.90;;;;;;4980546;28;20196;-68
2022/04/07 09:34:32;;;;;;;67.22;10.38;;;24.40;99.90;;;;;;4980351;28;20182;-68
2022/04/07 09:37:06;;;;;;;70.85;9.95;;;24.60;99.90;;;;;;4983878;28;20205;-68
2022/04/07 09:39:34;;;;;;;52.13;9.98;;;24.70;99.90;;;;;;4974824;28;20607;-68
2022/04/07 09:42:25;;;;;;;59.50;10.13;;;24.80;99.90;;;;;;4973843;28;20194;-68
2022/04/07 09:44:59;;;;;;;52.25;10.10;;;24.90;99.90;;;;;;4975473;28;20209;-68
2022/04/07 09:47:50;;;;;;;60.60;10.02;;;24.90;99.90;;;;;;4981288;28;20272;-68
2022/04/07 09:50:31;;;;;;;60.42;8.90;;;25.10;99.90;;;;;;4977877;28;20954;-67
2022/04/07 09:53:06;;;;;;;53.08;10.00;;;25.30;99.90;;;;;;4986794;28;20185;-68
2022/04/07 09:55:36;;;;;;;48.60;9.18;;;25.40;99.90;;;;;;4986924;28;20201;-68
2022/04/07 09:58:08;;;;;;;58.85;10.32;;;25.60;99.90;;;;;;4989939;28;20834;-66
2022/04/07 10:00:36;;;;;;;60.55;9.82;;;25.80;99.90;;;;;;4988452;28;20193;-68
2022/04/07 10:03:05;;;;;;;59.72;10.48;;;26.00;99.90;;;;;;4984491;28;20189;-68
2022/04/07 10:05:32;;;;;;;59.10;10.57;;;26.10;99.90;;;;;;4980597;28;20228;-69
2022/04/07 10:07:59;;;;;;;55.25;9.05;;;26.30;99.90;;;;;;4974290;28;20936;-68
2022/04/07 10:10:26;;;;;;;70.07;10.65;;;26.40;99.90;;;;;;4980812;28;20191;-68
2022/04/07 10:12:55;;;;;;;59.72;10.27;;;26.60;99.90;;;;;;4988253;28;20738;-68
2022/04/07 10:15:23;;;;;;;70.72;10.98;;;28.10;99.90;;;;;;4982735;28;20553;-68
2022/04/07 10:17:49;;;;;;;63.47;11.02;;;29.20;99.70;;;;;;4987982;28;20222;-68
2022/04/07 10:20:19;;;;;;;68.75;10.68;;;29.80;98.60;;;;;;4992186;28;20698;-68
2022/04/07 10:23:10;;;;;;;61.50;9.93;;;29.00;98.40;;;;;;4989302;28;20610;-68
2022/04/07 10:25:44;;;;;;;73.05;10.32;;;27.80;99.60;;;;;;5001815;28;20344;-67
2022/04/07 10:28:12;;;;;;;49.88;9.88;;;27.00;99.90;;;;;;4985833;28;20189;-67
2022/04/07 10:30:48;;;;;;;62.30;11.07;;;26.80;99.90;;;;;;4986105;28;20217;-68
2022/04/07 10:33:38;;;;;;;62.80;10.38;;;26.50;99.90;;;;;;4991368;28;20205;-68
2022/04/07 10:36:17;;;;;;;68.88;10.98;;;26.30;99.90;;;;;;4987249;28;20194;-68
2022/04/07 10:38:49;;;;;;;50.80;9.25;;;26.30;99.90;;;;;;4990193;28;20207;-68
2022/04/07 10:41:37;;;;;;;52.70;9.88;;;26.10;99.90;;;;;;4995235;28;20196;-67
2022/04/07 10:44:25;;;;;;;55.30;10.25;;;26.10;99.90;;;;;;5004167;28;20228;-68
2022/04/07 10:47:12;;;;;;;67.50;11.30;;;26.10;99.90;;;;;;4976500;28;20282;-68
2022/04/07 10:49:47;;;;;;;57.55;10.18;;;26.00;99.90;;;;;;4981897;28;20234;-68
2022/04/07 10:52:27;;;;;;;61.47;10.30;;;26.00;99.90;;;;;;4989310;28;20861;-67
2022/04/07 10:55:13;;;;;;;55.33;9.52;;;25.90;99.90;;;;;;4989270;28;20199;-68
2022/04/07 10:58:14;;;;;;;50.65;9.30;;;25.90;99.90;;;;;;4991429;28;20196;-68
2022/04/07 11:00:41;;;;;;;44.45;10.00;;;25.90;99.90;;;;;;4990108;28;20499;-68
2022/04/07 11:03:18;;;;;;;62.88;10.20;;;25.90;99.90;;;;;;4980975;28;20272;-68
2022/04/07 11:05:59;;;;;;;62.28;11.15;;;25.80;99.90;;;;;;4972082;28;20217;-68
2022/04/07 11:08:25;;;;;;;62.70;9.60;;;25.80;99.90;;;;;;4979151;28;20193;-68
2022/04/07 11:10:53;;;;;;;45.00;9.45;;;25.80;99.90;;;;;;4990327;28;20207;-68
2022/04/07 11:13:46;;;;;;;48.80;9.60;;;25.70;99.90;;;;;;4975232;28;20256;-67
2022/04/07 11:16:30;;;;;;;61.72;10.50;;;25.70;99.90;;;;;;4993245;28;20205;-68
2022/04/07 11:19:33;;;;;;;61.55;10.57;;;25.60;99.90;;;;;;4973186;28;20209;-68
2022/04/07 11:22:10;;;;;;;52.97;9.80;;;25.60;99.90;;;;;;4988906;28;20531;-68
2022/04/07 11:24:43;;;;;;;60.03;11.00;;;25.60;99.90;;;;;;4989303;28;20221;-68
2022/04/07 11:27:35;;;;;;;54.75;9.65;;;25.60;99.90;;;;;;4989990;28;20190;-68
2022/04/07 11:30:08;;;;;;;64.75;11.95;;;25.60;99.90;;;;;;4971995;28;20674;-68
2022/04/07 11:32:36;;;;;;;79.05;11.35;;;25.60;99.20;;;;;;4969866;28;20277;-67
2022/04/07 11:35:17;;;;;;;83.72;12.32;;;25.60;99.90;;;;;;4980971;28;20269;-68
2022/04/07 11:37:44;;;;;;;64.97;11.40;;;25.60;99.40;;;;;;4989395;28;20189;-68
2022/04/07 11:40:12;;;;;;;60.33;11.50;;;25.60;99.90;;;;;;4988033;28;21039;-67
2022/04/07 11:42:39;;;;;;;66.80;11.43;;;25.60;99.90;;;;;;4983639;28;20202;-67
2022/04/07 11:45:08;;;;;;;64.40;10.38;;;25.50;99.90;;;;;;4982875;28;20242;-67
2022/04/07 11:47:37;;;;;;;51.25;9.65;;;25.40;99.90;;;;;;4975195;28;20187;-67
2022/04/07 11:50:09;;;;;;;57.42;10.55;;;25.30;99.90;;;;;;4974808;28;20342;-67
2022/04/07 11:52:36;;;;;;;56.75;9.27;;;25.30;99.90;;;;;;4985495;28;20205;-67
2022/04/07 11:55:06;;;;;;;61.50;11.15;;;25.20;99.90;;;;;;5003673;28;20217;-67
2022/04/07 11:57:36;;;;;;;50.58;10.40;;;25.20;99.90;;;;;;4983554;28;20223;-67
2022/04/07 12:00:10;;;;;;;63.60;11.32;;;25.20;99.90;;;;;;4982401;28;20535;-67
2022/04/07 12:02:36;;;;;;;56.67;10.30;;;25.10;99.90;;;;;;4989221;28;20190;-67
2022/04/07 12:05:05;;;;;;;49.20;9.80;;;25.10;99.90;;;;;;4985977;28;20214;-67
2022/04/07 12:07:32;;;;;;;59.25;10.80;;;25.10;99.90;;;;;;4981348;28;20236;-67
2022/04/07 12:10:08;;;;;;;56.85;10.48;;;25.20;99.90;;;;;;4977469;28;20186;-67
2022/04/07 12:12:35;;;;;;;64.40;10.10;;;25.10;99.90;;;;;;4981866;28;20193;-67
2022/04/07 12:15:01;;;;;;;47.55;9.73;;;25.10;99.90;;;;;;4997443;28;20601;-67
2022/04/07 12:17:34;;;;;;;48.63;10.25;;;25.10;99.90;;;;;;4989543;28;20931;-67
2022/04/07 12:20:02;;;;;;;59.85;10.00;;;25.10;99.90;;;;;;5003022;28;20276;-67
2022/04/07 12:22:32;;;;;;;60.50;10.13;;;25.00;99.90;;;;;;4969092;28;20221;-66
2022/04/07 12:25:04;;;;;;;53.83;9.85;;;24.90;99.90;;;;;;5000071;28;20221;-67
2022/04/07 12:27:35;;;;;;;63.25;10.93;;;24.90;99.90;;;;;;4990777;28;20193;-67
2022/04/07 12:30:04;;;;;;;67.18;11.23;;;24.80;99.90;;;;;;4994101;28;20173;-66
2022/04/07 12:32:45;;;;;;;62.25;10.73;;;24.80;99.90;;;;;;4988140;28;20287;-67
2022/04/07 12:35:13;;;;;;;50.25;9.65;;;24.70;99.90;;;;;;4988145;28;20216;-66
2022/04/07 12:37:43;;;;;;;55.95;10.48;;;24.70;99.90;;;;;;4989689;28;20553;-66
2022/04/07 12:40:15;;;;;;;61.95;11.18;;;24.80;99.90;;;;;;4992716;28;20192;-66
2022/04/07 12:42:58;;;;;;;48.53;9.70;;;24.70;99.90;;;;;;4988268;28;20193;-67
2022/04/07 12:45:26;;;;;;;52.72;10.23;;;24.70;99.90;;;;;;4983126;28;20217;-67